Billings, MT

3:53 AM MDT on May 26, 2015 (GMT -0600)
MesoWest | | Change Station
CLOSE
Current Station
Personal Weather Station
Location: Billings, MT
Elevation: 3250 ft
Nearby Weather Stations

Elev 3250 ft 45.79 °N, 108.47 °W | Updated 49 minutes ago

Clear
Clear
48 °F
Feels Like 48 °F
N
2
Wind Variable Wind from ESE
Gusts 3.0 mph

Today
High -- | Low -- °F
--% Chance of Precip.
Yesterday
High -- | Low -- °F
Precip. -- in
5:31 AM 8:50 PM
First Quarter, 56% visible
Pressure 29.89 in
Visibility 10.0 miles
Clouds Few 22000 ft
Windchill 48 °F
Dew Point 43 °F
Humidity 83%
Rainfall in
Snow Depth Not available.
UV 0 out of 12
Pollen 4.00 out of 12
Air Quality Not available.
Flu Activity Sporadic
METAR KBIL 260853Z 03005KT 10SM FEW220 11/08 A2989

More Conditions Fewer Conditions

Pressure 29.89 in
Visibility 10.0 miles
Clouds Few 22000 ft
Windchill 48 °F
Dew Point 43 °F
Humidity 83%
Rainfall in
Snow Depth Not available.
UV 0 out of 12
Pollen 4.00 out of 12
Air Quality Not available.
Flu Activity Sporadic
METAR KBIL 260853Z 03005KT 10SM FEW220 11/08 A2989

More Conditions Fewer Conditions

10-Day Weather Forecast

Almanac

Astronomy

May. 26, 2015 Rise Set
Actual Time
Civil Twilight
Nautical Twilight
Astronomical Twilight
Moon
Length of Visible Light
Length of Day
Tomorrow will be .
, % of the Moon is Illuminated

Today's Extremes

State Highs State Lows

Community

WunderPhotos

Upload Photos

1,824,302 photos uploaded!

WunderBlogs® & News

Nearby

Air Quality

  Air Quality AQ Index Pollutant
Not available.

Snow Depth

Station Depth Elevation

Earthquake Activity

City Distance Mag. Time & Date
Minimum magnitude displayed is 2.5.

Coastal Water Temperatures

Place Temperature

Stations

Nearby Weather Stations

Station Location Temp. Windchill Dew Point Humidity Wind Precip. Elev Updated Type